sensor_id;sensor_type;location;lat;lon;timestamp;P1;durP1;ratioP1;P2;durP2;ratioP2
22282;SDS011;11310;51.528;21.204;2024-02-21T00:02:01;8.27;;;2.42;;
22282;SDS011;11310;51.528;21.204;2024-02-21T00:04:29;5.43;;;2.20;;
22282;SDS011;11310;51.528;21.204;2024-02-21T00:06:58;6.40;;;2.17;;
22282;SDS011;11310;51.528;21.204;2024-02-21T00:09:27;10.68;;;2.33;;
22282;SDS011;11310;51.528;21.204;2024-02-21T00:11:55;9.10;;;2.20;;
22282;SDS011;11310;51.528;21.204;2024-02-21T00:14:25;9.70;;;2.40;;
22282;SDS011;11310;51.528;21.204;2024-02-21T00:16:54;7.22;;;2.45;;
22282;SDS011;11310;51.528;21.204;2024-02-21T00:19:26;9.02;;;2.33;;
22282;SDS011;11310;51.528;21.204;2024-02-21T00:21:57;6.60;;;2.08;;
22282;SDS011;11310;51.528;21.204;2024-02-21T00:24:34;8.70;;;2.50;;
22282;SDS011;11310;51.528;21.204;2024-02-21T00:27:03;6.25;;;2.33;;
22282;SDS011;11310;51.528;21.204;2024-02-21T00:29:31;6.88;;;2.25;;
22282;SDS011;11310;51.528;21.204;2024-02-21T00:32:01;5.82;;;2.17;;
22282;SDS011;11310;51.528;21.204;2024-02-21T00:34:31;11.20;;;2.63;;
22282;SDS011;11310;51.528;21.204;2024-02-21T00:36:59;9.05;;;2.53;;
22282;SDS011;11310;51.528;21.204;2024-02-21T00:39:32;8.00;;;2.33;;
22282;SDS011;11310;51.528;21.204;2024-02-21T00:42:00;10.93;;;2.55;;
22282;SDS011;11310;51.528;21.204;2024-02-21T00:44:29;7.32;;;2.10;;
22282;SDS011;11310;51.528;21.204;2024-02-21T00:46:57;9.20;;;2.45;;
22282;SDS011;11310;51.528;21.204;2024-02-21T00:49:26;6.55;;;2.33;;
22282;SDS011;11310;51.528;21.204;2024-02-21T00:51:57;8.05;;;2.60;;
22282;SDS011;11310;51.528;21.204;2024-02-21T00:54:26;6.55;;;2.13;;
22282;SDS011;11310;51.528;21.204;2024-02-21T00:57:05;10.85;;;2.70;;
22282;SDS011;11310;51.528;21.204;2024-02-21T00:59:42;6.88;;;2.08;;
22282;SDS011;11310;51.528;21.204;2024-02-21T01:02:11;6.60;;;2.25;;
22282;SDS011;11310;51.528;21.204;2024-02-21T01:04:40;5.97;;;2.20;;
22282;SDS011;11310;51.528;21.204;2024-02-21T01:07:10;7.00;;;2.28;;
22282;SDS011;11310;51.528;21.204;2024-02-21T01:09:40;6.93;;;2.30;;
22282;SDS011;11310;51.528;21.204;2024-02-21T01:12:10;13.45;;;2.92;;
22282;SDS011;11310;51.528;21.204;2024-02-21T01:14:38;9.73;;;2.70;;
22282;SDS011;11310;51.528;21.204;2024-02-21T01:19:38;8.40;;;2.35;;
22282;SDS011;11310;51.528;21.204;2024-02-21T01:22:06;11.18;;;3.08;;
22282;SDS011;11310;51.528;21.204;2024-02-21T01:24:38;6.80;;;2.95;;
22282;SDS011;11310;51.528;21.204;2024-02-21T01:27:06;6.63;;;2.70;;
22282;SDS011;11310;51.528;21.204;2024-02-21T01:29:35;10.07;;;2.53;;
22282;SDS011;11310;51.528;21.204;2024-02-21T01:32:04;6.68;;;2.58;;
22282;SDS011;11310;51.528;21.204;2024-02-21T01:34:33;7.80;;;2.83;;
22282;SDS011;11310;51.528;21.204;2024-02-21T01:37:01;7.20;;;2.40;;
22282;SDS011;11310;51.528;21.204;2024-02-21T01:39:34;8.23;;;2.80;;
22282;SDS011;11310;51.528;21.204;2024-02-21T01:42:04;8.55;;;3.10;;
22282;SDS011;11310;51.528;21.204;2024-02-21T01:44:32;9.43;;;3.05;;
22282;SDS011;11310;51.528;21.204;2024-02-21T01:47:07;7.03;;;2.67;;
22282;SDS011;11310;51.528;21.204;2024-02-21T01:49:36;8.18;;;2.90;;
22282;SDS011;11310;51.528;21.204;2024-02-21T01:52:05;8.15;;;2.72;;
22282;SDS011;11310;51.528;21.204;2024-02-21T01:54:34;9.98;;;3.00;;
22282;SDS011;11310;51.528;21.204;2024-02-21T01:57:04;7.30;;;2.55;;
22282;SDS011;11310;51.528;21.204;2024-02-21T01:59:33;8.10;;;2.75;;
22282;SDS011;11310;51.528;21.204;2024-02-21T02:02:03;9.15;;;2.92;;
22282;SDS011;11310;51.528;21.204;2024-02-21T02:04:31;9.18;;;2.90;;
22282;SDS011;11310;51.528;21.204;2024-02-21T02:07:00;10.20;;;3.13;;
22282;SDS011;11310;51.528;21.204;2024-02-21T02:09:32;7.47;;;3.00;;
22282;SDS011;11310;51.528;21.204;2024-02-21T02:12:04;7.55;;;2.90;;
22282;SDS011;11310;51.528;21.204;2024-02-21T02:14:33;9.43;;;3.38;;
22282;SDS011;11310;51.528;21.204;2024-02-21T02:17:01;11.30;;;3.03;;
22282;SDS011;11310;51.528;21.204;2024-02-21T02:19:30;9.93;;;3.00;;
22282;SDS011;11310;51.528;21.204;2024-02-21T02:22:00;9.63;;;3.28;;
22282;SDS011;11310;51.528;21.204;2024-02-21T02:24:38;7.28;;;2.95;;
22282;SDS011;11310;51.528;21.204;2024-02-21T02:27:07;10.02;;;2.88;;
22282;SDS011;11310;51.528;21.204;2024-02-21T02:29:35;7.68;;;2.47;;
22282;SDS011;11310;51.528;21.204;2024-02-21T02:32:05;8.57;;;2.88;;
22282;SDS011;11310;51.528;21.204;2024-02-21T02:34:34;8.80;;;2.72;;
22282;SDS011;11310;51.528;21.204;2024-02-21T02:37:02;7.60;;;2.45;;
22282;SDS011;11310;51.528;21.204;2024-02-21T02:39:32;10.63;;;3.10;;
22282;SDS011;11310;51.528;21.204;2024-02-21T02:42:03;9.20;;;2.70;;
22282;SDS011;11310;51.528;21.204;2024-02-21T02:44:33;9.65;;;3.25;;
22282;SDS011;11310;51.528;21.204;2024-02-21T02:47:03;9.70;;;2.92;;
22282;SDS011;11310;51.528;21.204;2024-02-21T02:49:32;13.05;;;3.67;;
22282;SDS011;11310;51.528;21.204;2024-02-21T02:52:01;8.95;;;2.88;;
22282;SDS011;11310;51.528;21.204;2024-02-21T02:54:29;11.95;;;2.97;;
22282;SDS011;11310;51.528;21.204;2024-02-21T02:56:58;11.95;;;3.65;;
22282;SDS011;11310;51.528;21.204;2024-02-21T02:59:27;10.70;;;3.40;;
22282;SDS011;11310;51.528;21.204;2024-02-21T03:01:56;8.48;;;2.90;;
22282;SDS011;11310;51.528;21.204;2024-02-21T03:04:24;8.82;;;3.17;;
22282;SDS011;11310;51.528;21.204;2024-02-21T03:06:54;9.25;;;3.00;;
22282;SDS011;11310;51.528;21.204;2024-02-21T03:09:22;8.07;;;2.90;;
22282;SDS011;11310;51.528;21.204;2024-02-21T03:11:51;8.70;;;3.33;;
22282;SDS011;11310;51.528;21.204;2024-02-21T03:14:24;9.60;;;3.60;;
22282;SDS011;11310;51.528;21.204;2024-02-21T03:16:53;10.93;;;3.80;;
22282;SDS011;11310;51.528;21.204;2024-02-21T03:19:22;11.90;;;3.95;;
22282;SDS011;11310;51.528;21.204;2024-02-21T03:21:50;10.30;;;3.17;;
22282;SDS011;11310;51.528;21.204;2024-02-21T03:24:19;12.23;;;3.47;;
22282;SDS011;11310;51.528;21.204;2024-02-21T03:26:48;12.20;;;3.67;;
22282;SDS011;11310;51.528;21.204;2024-02-21T03:29:17;11.57;;;3.83;;
22282;SDS011;11310;51.528;21.204;2024-02-21T03:31:46;11.73;;;3.70;;
22282;SDS011;11310;51.528;21.204;2024-02-21T03:34:15;10.40;;;3.50;;
22282;SDS011;11310;51.528;21.204;2024-02-21T03:36:44;9.25;;;3.25;;
22282;SDS011;11310;51.528;21.204;2024-02-21T03:39:15;10.52;;;3.30;;
22282;SDS011;11310;51.528;21.204;2024-02-21T03:41:44;10.85;;;3.58;;
22282;SDS011;11310;51.528;21.204;2024-02-21T03:44:12;9.48;;;3.47;;
22282;SDS011;11310;51.528;21.204;2024-02-21T03:46:40;10.00;;;3.30;;
22282;SDS011;11310;51.528;21.204;2024-02-21T03:49:09;13.15;;;3.50;;
22282;SDS011;11310;51.528;21.204;2024-02-21T03:51:41;10.80;;;3.72;;
22282;SDS011;11310;51.528;21.204;2024-02-21T03:54:10;7.88;;;2.67;;
22282;SDS011;11310;51.528;21.204;2024-02-21T03:56:44;7.03;;;2.80;;
22282;SDS011;11310;51.528;21.204;2024-02-21T03:59:15;11.05;;;3.63;;
22282;SDS011;11310;51.528;21.204;2024-02-21T04:01:44;8.20;;;3.20;;
22282;SDS011;11310;51.528;21.204;2024-02-21T04:04:12;9.77;;;3.45;;
22282;SDS011;11310;51.528;21.204;2024-02-21T04:06:47;11.82;;;3.28;;
22282;SDS011;11310;51.528;21.204;2024-02-21T04:09:16;8.40;;;3.15;;
22282;SDS011;11310;51.528;21.204;2024-02-21T04:11:45;10.65;;;3.60;;
22282;SDS011;11310;51.528;21.204;2024-02-21T04:14:13;10.82;;;3.17;;
22282;SDS011;11310;51.528;21.204;2024-02-21T04:16:41;11.43;;;3.75;;
22282;SDS011;11310;51.528;21.204;2024-02-21T04:19:10;8.05;;;2.97;;
22282;SDS011;11310;51.528;21.204;2024-02-21T04:21:39;12.30;;;3.88;;
22282;SDS011;11310;51.528;21.204;2024-02-21T04:24:09;9.23;;;3.40;;
22282;SDS011;11310;51.528;21.204;2024-02-21T04:26:37;8.95;;;3.40;;
22282;SDS011;11310;51.528;21.204;2024-02-21T04:29:06;7.38;;;3.20;;
22282;SDS011;11310;51.528;21.204;2024-02-21T04:31:34;9.55;;;3.40;;
22282;SDS011;11310;51.528;21.204;2024-02-21T04:34:03;9.48;;;3.92;;
22282;SDS011;11310;51.528;21.204;2024-02-21T04:36:31;9.27;;;3.08;;
22282;SDS011;11310;51.528;21.204;2024-02-21T04:38:59;11.05;;;3.65;;
22282;SDS011;11310;51.528;21.204;2024-02-21T04:41:29;9.38;;;3.53;;
22282;SDS011;11310;51.528;21.204;2024-02-21T04:43:58;11.30;;;3.70;;
22282;SDS011;11310;51.528;21.204;2024-02-21T04:46:27;12.63;;;3.70;;
22282;SDS011;11310;51.528;21.204;2024-02-21T04:48:55;7.95;;;3.15;;
22282;SDS011;11310;51.528;21.204;2024-02-21T04:51:24;11.00;;;3.75;;
22282;SDS011;11310;51.528;21.204;2024-02-21T04:53:52;8.45;;;3.03;;
22282;SDS011;11310;51.528;21.204;2024-02-21T04:56:21;10.20;;;3.10;;
22282;SDS011;11310;51.528;21.204;2024-02-21T04:58:51;8.57;;;3.17;;
22282;SDS011;11310;51.528;21.204;2024-02-21T05:01:19;13.25;;;3.20;;
22282;SDS011;11310;51.528;21.204;2024-02-21T05:03:52;9.30;;;3.40;;
22282;SDS011;11310;51.528;21.204;2024-02-21T05:06:20;6.75;;;3.10;;
22282;SDS011;11310;51.528;21.204;2024-02-21T05:08:54;8.93;;;3.15;;
22282;SDS011;11310;51.528;21.204;2024-02-21T05:11:25;7.13;;;3.60;;
22282;SDS011;11310;51.528;21.204;2024-02-21T05:13:56;12.10;;;3.58;;
22282;SDS011;11310;51.528;21.204;2024-02-21T05:16:24;12.90;;;3.28;;
22282;SDS011;11310;51.528;21.204;2024-02-21T05:18:53;10.15;;;3.92;;
22282;SDS011;11310;51.528;21.204;2024-02-21T05:21:23;9.45;;;3.45;;
22282;SDS011;11310;51.528;21.204;2024-02-21T05:23:51;10.48;;;3.45;;
22282;SDS011;11310;51.528;21.204;2024-02-21T05:26:20;9.70;;;3.33;;
22282;SDS011;11310;51.528;21.204;2024-02-21T05:28:49;12.43;;;3.47;;
22282;SDS011;11310;51.528;21.204;2024-02-21T05:31:20;12.88;;;3.33;;
22282;SDS011;11310;51.528;21.204;2024-02-21T05:33:49;9.60;;;3.25;;
22282;SDS011;11310;51.528;21.204;2024-02-21T05:36:21;9.13;;;3.20;;
22282;SDS011;11310;51.528;21.204;2024-02-21T05:38:51;9.85;;;3.22;;
22282;SDS011;11310;51.528;21.204;2024-02-21T05:41:20;8.52;;;3.30;;
22282;SDS011;11310;51.528;21.204;2024-02-21T05:43:51;13.38;;;3.80;;
22282;SDS011;11310;51.528;21.204;2024-02-21T05:46:21;11.30;;;3.78;;
22282;SDS011;11310;51.528;21.204;2024-02-21T05:48:51;10.88;;;3.17;;
22282;SDS011;11310;51.528;21.204;2024-02-21T05:51:20;11.00;;;3.50;;
22282;SDS011;11310;51.528;21.204;2024-02-21T05:53:49;9.30;;;3.17;;
22282;SDS011;11310;51.528;21.204;2024-02-21T05:56:18;9.43;;;3.15;;
22282;SDS011;11310;51.528;21.204;2024-02-21T05:58:50;8.57;;;3.10;;
22282;SDS011;11310;51.528;21.204;2024-02-21T06:01:19;11.02;;;3.92;;
22282;SDS011;11310;51.528;21.204;2024-02-21T06:03:50;12.68;;;3.67;;
22282;SDS011;11310;51.528;21.204;2024-02-21T06:06:20;13.32;;;3.75;;
22282;SDS011;11310;51.528;21.204;2024-02-21T06:08:52;11.65;;;4.28;;
22282;SDS011;11310;51.528;21.204;2024-02-21T06:11:20;10.13;;;4.13;;
22282;SDS011;11310;51.528;21.204;2024-02-21T06:13:49;12.55;;;3.70;;
22282;SDS011;11310;51.528;21.204;2024-02-21T06:16:18;12.52;;;3.33;;
22282;SDS011;11310;51.528;21.204;2024-02-21T06:18:48;10.23;;;4.18;;
22282;SDS011;11310;51.528;21.204;2024-02-21T06:21:18;12.83;;;4.03;;
22282;SDS011;11310;51.528;21.204;2024-02-21T06:23:49;10.48;;;3.80;;
22282;SDS011;11310;51.528;21.204;2024-02-21T06:26:18;13.43;;;4.60;;
22282;SDS011;11310;51.528;21.204;2024-02-21T06:28:50;11.10;;;3.90;;
22282;SDS011;11310;51.528;21.204;2024-02-21T06:31:20;11.43;;;3.53;;
22282;SDS011;11310;51.528;21.204;2024-02-21T06:33:50;10.93;;;3.83;;
22282;SDS011;11310;51.528;21.204;2024-02-21T06:36:18;12.48;;;4.45;;
22282;SDS011;11310;51.528;21.204;2024-02-21T06:38:50;14.80;;;4.63;;
22282;SDS011;11310;51.528;21.204;2024-02-21T06:41:25;9.82;;;4.10;;
22282;SDS011;11310;51.528;21.204;2024-02-21T06:43:58;12.30;;;4.03;;
22282;SDS011;11310;51.528;21.204;2024-02-21T06:46:28;9.88;;;3.60;;
22282;SDS011;11310;51.528;21.204;2024-02-21T06:49:03;11.30;;;3.85;;
22282;SDS011;11310;51.528;21.204;2024-02-21T06:51:35;12.80;;;3.55;;
22282;SDS011;11310;51.528;21.204;2024-02-21T06:54:04;12.40;;;4.50;;
22282;SDS011;11310;51.528;21.204;2024-02-21T06:56:36;12.18;;;3.70;;
22282;SDS011;11310;51.528;21.204;2024-02-21T06:59:06;12.07;;;4.25;;
22282;SDS011;11310;51.528;21.204;2024-02-21T07:01:34;10.50;;;4.25;;
22282;SDS011;11310;51.528;21.204;2024-02-21T07:04:06;18.90;;;4.72;;
22282;SDS011;11310;51.528;21.204;2024-02-21T07:06:35;13.05;;;4.53;;
22282;SDS011;11310;51.528;21.204;2024-02-21T07:09:04;20.40;;;5.75;;
22282;SDS011;11310;51.528;21.204;2024-02-21T07:11:34;11.98;;;4.63;;
22282;SDS011;11310;51.528;21.204;2024-02-21T07:14:03;13.23;;;5.05;;
22282;SDS011;11310;51.528;21.204;2024-02-21T07:16:31;14.70;;;5.07;;
22282;SDS011;11310;51.528;21.204;2024-02-21T07:19:02;10.27;;;4.57;;
22282;SDS011;11310;51.528;21.204;2024-02-21T07:21:33;13.35;;;5.00;;
22282;SDS011;11310;51.528;21.204;2024-02-21T07:24:02;14.70;;;5.00;;
22282;SDS011;11310;51.528;21.204;2024-02-21T07:26:31;19.15;;;5.75;;
22282;SDS011;11310;51.528;21.204;2024-02-21T07:29:02;17.73;;;5.00;;
22282;SDS011;11310;51.528;21.204;2024-02-21T07:31:37;14.85;;;4.60;;
22282;SDS011;11310;51.528;21.204;2024-02-21T07:34:08;12.77;;;3.92;;
22282;SDS011;11310;51.528;21.204;2024-02-21T07:36:37;12.52;;;4.57;;
22282;SDS011;11310;51.528;21.204;2024-02-21T07:39:08;14.88;;;4.65;;
22282;SDS011;11310;51.528;21.204;2024-02-21T07:41:39;11.52;;;4.18;;
22282;SDS011;11310;51.528;21.204;2024-02-21T07:44:12;11.20;;;4.20;;
22282;SDS011;11310;51.528;21.204;2024-02-21T07:46:40;13.98;;;4.28;;
22282;SDS011;11310;51.528;21.204;2024-02-21T07:49:14;12.73;;;4.13;;
22282;SDS011;11310;51.528;21.204;2024-02-21T07:51:43;17.92;;;4.57;;
22282;SDS011;11310;51.528;21.204;2024-02-21T07:54:11;13.07;;;4.07;;
22282;SDS011;11310;51.528;21.204;2024-02-21T07:56:43;13.25;;;4.35;;
22282;SDS011;11310;51.528;21.204;2024-02-21T07:59:14;21.80;;;5.78;;
22282;SDS011;11310;51.528;21.204;2024-02-21T08:01:43;13.25;;;4.80;;
22282;SDS011;11310;51.528;21.204;2024-02-21T08:04:17;19.88;;;5.10;;
22282;SDS011;11310;51.528;21.204;2024-02-21T08:06:50;15.20;;;5.25;;
22282;SDS011;11310;51.528;21.204;2024-02-21T08:09:20;18.25;;;5.93;;
22282;SDS011;11310;51.528;21.204;2024-02-21T08:11:50;19.98;;;5.25;;
22282;SDS011;11310;51.528;21.204;2024-02-21T08:14:20;14.70;;;4.72;;
22282;SDS011;11310;51.528;21.204;2024-02-21T08:16:53;11.52;;;4.47;;
22282;SDS011;11310;51.528;21.204;2024-02-21T08:19:29;14.18;;;4.78;;
22282;SDS011;11310;51.528;21.204;2024-02-21T08:21:59;18.03;;;5.13;;
22282;SDS011;11310;51.528;21.204;2024-02-21T08:24:28;19.10;;;5.32;;
22282;SDS011;11310;51.528;21.204;2024-02-21T08:26:57;16.48;;;4.78;;
22282;SDS011;11310;51.528;21.204;2024-02-21T08:29:26;14.00;;;4.65;;
22282;SDS011;11310;51.528;21.204;2024-02-21T08:31:55;17.85;;;4.88;;
22282;SDS011;11310;51.528;21.204;2024-02-21T08:34:27;17.77;;;4.68;;
22282;SDS011;11310;51.528;21.204;2024-02-21T08:37:02;11.93;;;4.22;;
22282;SDS011;11310;51.528;21.204;2024-02-21T08:39:31;13.32;;;4.65;;
22282;SDS011;11310;51.528;21.204;2024-02-21T08:42:00;13.63;;;4.60;;
22282;SDS011;11310;51.528;21.204;2024-02-21T08:44:29;16.80;;;4.47;;
22282;SDS011;11310;51.528;21.204;2024-02-21T08:47:00;16.40;;;4.05;;
22282;SDS011;11310;51.528;21.204;2024-02-21T08:49:34;18.92;;;5.10;;
22282;SDS011;11310;51.528;21.204;2024-02-21T08:52:07;17.75;;;4.50;;
22282;SDS011;11310;51.528;21.204;2024-02-21T08:54:36;20.00;;;4.82;;
22282;SDS011;11310;51.528;21.204;2024-02-21T08:57:05;13.70;;;4.32;;
22282;SDS011;11310;51.528;21.204;2024-02-21T08:59:34;14.18;;;4.25;;
22282;SDS011;11310;51.528;21.204;2024-02-21T09:02:02;16.48;;;5.38;;
22282;SDS011;11310;51.528;21.204;2024-02-21T09:04:32;14.90;;;4.82;;
22282;SDS011;11310;51.528;21.204;2024-02-21T09:07:01;15.43;;;4.63;;
22282;SDS011;11310;51.528;21.204;2024-02-21T09:09:34;17.73;;;5.10;;
22282;SDS011;11310;51.528;21.204;2024-02-21T09:12:03;16.73;;;4.88;;
22282;SDS011;11310;51.528;21.204;2024-02-21T09:14:33;14.80;;;4.47;;
22282;SDS011;11310;51.528;21.204;2024-02-21T09:17:04;19.65;;;5.03;;
22282;SDS011;11310;51.528;21.204;2024-02-21T09:19:33;12.35;;;4.75;;
22282;SDS011;11310;51.528;21.204;2024-02-21T09:22:06;21.40;;;5.18;;
22282;SDS011;11310;51.528;21.204;2024-02-21T09:24:36;15.70;;;4.50;;
22282;SDS011;11310;51.528;21.204;2024-02-21T09:27:09;12.48;;;4.10;;
22282;SDS011;11310;51.528;21.204;2024-02-21T09:29:40;10.13;;;3.58;;
22282;SDS011;11310;51.528;21.204;2024-02-21T09:32:11;16.52;;;3.97;;
22282;SDS011;11310;51.528;21.204;2024-02-21T09:34:43;12.68;;;4.78;;
22282;SDS011;11310;51.528;21.204;2024-02-21T09:37:12;15.60;;;4.10;;
22282;SDS011;11310;51.528;21.204;2024-02-21T09:39:45;18.77;;;4.72;;
22282;SDS011;11310;51.528;21.204;2024-02-21T09:42:15;12.63;;;4.18;;
22282;SDS011;11310;51.528;21.204;2024-02-21T09:44:48;17.77;;;4.50;;
22282;SDS011;11310;51.528;21.204;2024-02-21T09:47:19;16.83;;;4.57;;
22282;SDS011;11310;51.528;21.204;2024-02-21T09:50:01;18.02;;;4.88;;
22282;SDS011;11310;51.528;21.204;2024-02-21T09:52:36;17.13;;;4.68;;
22282;SDS011;11310;51.528;21.204;2024-02-21T09:55:10;11.25;;;3.50;;
22282;SDS011;11310;51.528;21.204;2024-02-21T09:57:41;16.10;;;4.95;;
22282;SDS011;11310;51.528;21.204;2024-02-21T10:00:13;16.42;;;3.85;;
22282;SDS011;11310;51.528;21.204;2024-02-21T10:02:49;14.43;;;3.58;;
22282;SDS011;11310;51.528;21.204;2024-02-21T10:05:18;17.92;;;4.75;;
22282;SDS011;11310;51.528;21.204;2024-02-21T10:07:48;8.73;;;3.38;;
22282;SDS011;11310;51.528;21.204;2024-02-21T10:10:21;11.82;;;3.05;;
22282;SDS011;11310;51.528;21.204;2024-02-21T10:12:52;13.30;;;3.85;;
22282;SDS011;11310;51.528;21.204;2024-02-21T10:15:23;14.48;;;3.53;;
22282;SDS011;11310;51.528;21.204;2024-02-21T10:17:59;10.50;;;3.25;;
22282;SDS011;11310;51.528;21.204;2024-02-21T10:20:31;13.40;;;3.70;;
22282;SDS011;11310;51.528;21.204;2024-02-21T10:23:02;15.00;;;3.95;;
22282;SDS011;11310;51.528;21.204;2024-02-21T10:25:37;13.07;;;3.30;;
22282;SDS011;11310;51.528;21.204;2024-02-21T10:28:11;14.27;;;3.47;;
22282;SDS011;11310;51.528;21.204;2024-02-21T10:30:50;13.70;;;3.30;;
22282;SDS011;11310;51.528;21.204;2024-02-21T10:33:19;17.17;;;3.47;;
22282;SDS011;11310;51.528;21.204;2024-02-21T10:36:05;13.55;;;3.85;;
22282;SDS011;11310;51.528;21.204;2024-02-21T10:38:36;14.75;;;3.65;;
22282;SDS011;11310;51.528;21.204;2024-02-21T10:41:08;12.95;;;3.53;;
22282;SDS011;11310;51.528;21.204;2024-02-21T10:43:40;14.63;;;3.85;;
22282;SDS011;11310;51.528;21.204;2024-02-21T10:46:13;11.13;;;3.08;;
22282;SDS011;11310;51.528;21.204;2024-02-21T10:48:52;11.98;;;3.40;;
22282;SDS011;11310;51.528;21.204;2024-02-21T10:51:33;15.07;;;3.55;;
22282;SDS011;11310;51.528;21.204;2024-02-21T10:54:16;15.52;;;3.42;;
22282;SDS011;11310;51.528;21.204;2024-02-21T10:57:03;14.25;;;3.47;;
22282;SDS011;11310;51.528;21.204;2024-02-21T10:59:33;10.60;;;3.00;;
22282;SDS011;11310;51.528;21.204;2024-02-21T11:04:35;10.13;;;3.00;;
22282;SDS011;11310;51.528;21.204;2024-02-21T11:07:08;15.55;;;3.10;;
22282;SDS011;11310;51.528;21.204;2024-02-21T11:09:37;12.82;;;2.83;;
22282;SDS011;11310;51.528;21.204;2024-02-21T11:12:08;17.15;;;3.88;;
22282;SDS011;11310;51.528;21.204;2024-02-21T11:14:38;12.43;;;3.63;;
22282;SDS011;11310;51.528;21.204;2024-02-21T11:17:15;10.07;;;3.15;;
22282;SDS011;11310;51.528;21.204;2024-02-21T11:19:46;13.25;;;3.35;;
22282;SDS011;11310;51.528;21.204;2024-02-21T11:22:16;9.40;;;2.83;;
22282;SDS011;11310;51.528;21.204;2024-02-21T11:24:52;10.30;;;3.58;;
22282;SDS011;11310;51.528;21.204;2024-02-21T11:27:22;15.30;;;3.58;;
22282;SDS011;11310;51.528;21.204;2024-02-21T11:32:23;10.30;;;3.40;;
22282;SDS011;11310;51.528;21.204;2024-02-21T11:34:54;12.45;;;3.40;;
22282;SDS011;11310;51.528;21.204;2024-02-21T11:37:24;9.63;;;3.50;;
22282;SDS011;11310;51.528;21.204;2024-02-21T11:39:55;11.77;;;3.53;;
22282;SDS011;11310;51.528;21.204;2024-02-21T11:42:26;12.38;;;3.33;;
22282;SDS011;11310;51.528;21.204;2024-02-21T11:44:56;14.20;;;3.53;;
22282;SDS011;11310;51.528;21.204;2024-02-21T11:47:29;14.70;;;3.45;;
22282;SDS011;11310;51.528;21.204;2024-02-21T11:49:58;17.77;;;4.03;;
22282;SDS011;11310;51.528;21.204;2024-02-21T11:52:27;15.88;;;4.00;;
22282;SDS011;11310;51.528;21.204;2024-02-21T11:54:56;12.65;;;3.45;;
22282;SDS011;11310;51.528;21.204;2024-02-21T11:57:34;18.38;;;4.38;;
22282;SDS011;11310;51.528;21.204;2024-02-21T12:00:12;12.98;;;3.60;;
22282;SDS011;11310;51.528;21.204;2024-02-21T12:02:43;15.48;;;4.00;;
22282;SDS011;11310;51.528;21.204;2024-02-21T12:05:13;14.90;;;4.38;;
22282;SDS011;11310;51.528;21.204;2024-02-21T12:07:42;12.95;;;3.53;;
22282;SDS011;11310;51.528;21.204;2024-02-21T12:10:12;14.40;;;4.22;;
22282;SDS011;11310;51.528;21.204;2024-02-21T12:12:42;11.35;;;3.70;;
22282;SDS011;11310;51.528;21.204;2024-02-21T12:15:11;10.48;;;3.65;;
22282;SDS011;11310;51.528;21.204;2024-02-21T12:17:52;13.23;;;3.80;;
22282;SDS011;11310;51.528;21.204;2024-02-21T12:20:21;17.95;;;4.47;;
22282;SDS011;11310;51.528;21.204;2024-02-21T12:22:50;16.88;;;4.85;;
22282;SDS011;11310;51.528;21.204;2024-02-21T12:25:22;13.15;;;3.60;;
22282;SDS011;11310;51.528;21.204;2024-02-21T12:27:58;11.88;;;3.92;;
22282;SDS011;11310;51.528;21.204;2024-02-21T12:30:28;13.07;;;3.45;;
22282;SDS011;11310;51.528;21.204;2024-02-21T12:32:57;13.50;;;4.00;;
22282;SDS011;11310;51.528;21.204;2024-02-21T12:38:00;12.65;;;3.80;;
22282;SDS011;11310;51.528;21.204;2024-02-21T12:40:29;14.93;;;3.92;;
22282;SDS011;11310;51.528;21.204;2024-02-21T12:43:01;10.00;;;3.45;;
22282;SDS011;11310;51.528;21.204;2024-02-21T12:45:30;9.23;;;3.80;;
22282;SDS011;11310;51.528;21.204;2024-02-21T12:48:01;12.00;;;3.60;;
22282;SDS011;11310;51.528;21.204;2024-02-21T12:50:31;10.02;;;3.55;;
22282;SDS011;11310;51.528;21.204;2024-02-21T12:53:00;13.73;;;3.65;;
22282;SDS011;11310;51.528;21.204;2024-02-21T12:55:32;11.98;;;3.33;;
22282;SDS011;11310;51.528;21.204;2024-02-21T12:58:04;14.52;;;3.97;;
22282;SDS011;11310;51.528;21.204;2024-02-21T13:00:34;9.73;;;3.15;;
22282;SDS011;11310;51.528;21.204;2024-02-21T13:03:05;16.17;;;3.47;;
22282;SDS011;11310;51.528;21.204;2024-02-21T13:05:33;15.95;;;3.53;;
22282;SDS011;11310;51.528;21.204;2024-02-21T13:08:03;11.45;;;3.67;;
22282;SDS011;11310;51.528;21.204;2024-02-21T13:10:40;13.60;;;3.83;;
22282;SDS011;11310;51.528;21.204;2024-02-21T13:13:10;15.23;;;5.05;;
22282;SDS011;11310;51.528;21.204;2024-02-21T13:18:10;17.75;;;5.45;;
22282;SDS011;11310;51.528;21.204;2024-02-21T13:20:39;19.65;;;5.57;;
22282;SDS011;11310;51.528;21.204;2024-02-21T13:23:09;19.10;;;6.22;;
22282;SDS011;11310;51.528;21.204;2024-02-21T13:25:38;18.90;;;5.78;;
22282;SDS011;11310;51.528;21.204;2024-02-21T13:28:08;16.92;;;5.22;;
22282;SDS011;11310;51.528;21.204;2024-02-21T13:30:39;13.80;;;4.32;;
22282;SDS011;11310;51.528;21.204;2024-02-21T13:33:11;18.77;;;4.68;;
22282;SDS011;11310;51.528;21.204;2024-02-21T13:35:43;11.05;;;3.45;;
22282;SDS011;11310;51.528;21.204;2024-02-21T13:38:12;12.32;;;3.80;;
22282;SDS011;11310;51.528;21.204;2024-02-21T13:40:41;13.10;;;3.67;;
22282;SDS011;11310;51.528;21.204;2024-02-21T13:43:10;12.85;;;3.75;;
22282;SDS011;11310;51.528;21.204;2024-02-21T13:45:40;11.48;;;3.42;;
22282;SDS011;11310;51.528;21.204;2024-02-21T13:48:11;12.45;;;3.85;;
22282;SDS011;11310;51.528;21.204;2024-02-21T13:50:42;10.98;;;3.35;;
22282;SDS011;11310;51.528;21.204;2024-02-21T13:53:12;12.85;;;3.63;;
22282;SDS011;11310;51.528;21.204;2024-02-21T13:55:46;18.65;;;4.78;;
22282;SDS011;11310;51.528;21.204;2024-02-21T13:58:16;16.77;;;4.10;;
22282;SDS011;11310;51.528;21.204;2024-02-21T14:00:47;13.90;;;3.50;;
22282;SDS011;11310;51.528;21.204;2024-02-21T14:03:18;13.68;;;3.70;;
22282;SDS011;11310;51.528;21.204;2024-02-21T14:05:48;13.20;;;3.50;;
22282;SDS011;11310;51.528;21.204;2024-02-21T14:08:18;13.18;;;3.33;;
22282;SDS011;11310;51.528;21.204;2024-02-21T14:10:47;10.70;;;3.70;;
22282;SDS011;11310;51.528;21.204;2024-02-21T14:13:17;12.18;;;3.40;;
22282;SDS011;11310;51.528;21.204;2024-02-21T14:15:56;14.15;;;3.42;;
22282;SDS011;11310;51.528;21.204;2024-02-21T14:18:32;7.97;;;3.30;;
22282;SDS011;11310;51.528;21.204;2024-02-21T14:21:01;12.05;;;3.50;;
22282;SDS011;11310;51.528;21.204;2024-02-21T14:23:31;11.18;;;3.08;;
22282;SDS011;11310;51.528;21.204;2024-02-21T14:26:01;12.73;;;4.43;;
22282;SDS011;11310;51.528;21.204;2024-02-21T14:28:31;12.07;;;3.47;;
22282;SDS011;11310;51.528;21.204;2024-02-21T14:31:08;15.60;;;3.95;;
22282;SDS011;11310;51.528;21.204;2024-02-21T14:33:39;14.00;;;3.38;;
22282;SDS011;11310;51.528;21.204;2024-02-21T14:36:09;11.10;;;3.45;;
22282;SDS011;11310;51.528;21.204;2024-02-21T14:38:40;6.90;;;3.22;;
22282;SDS011;11310;51.528;21.204;2024-02-21T14:41:10;15.43;;;3.95;;
22282;SDS011;11310;51.528;21.204;2024-02-21T14:43:41;13.93;;;3.92;;
22282;SDS011;11310;51.528;21.204;2024-02-21T14:46:12;13.20;;;3.63;;
22282;SDS011;11310;51.528;21.204;2024-02-21T14:48:41;13.07;;;4.10;;
22282;SDS011;11310;51.528;21.204;2024-02-21T14:51:12;11.80;;;4.53;;
22282;SDS011;11310;51.528;21.204;2024-02-21T14:53:46;14.30;;;5.80;;
22282;SDS011;11310;51.528;21.204;2024-02-21T14:56:15;15.05;;;5.53;;
22282;SDS011;11310;51.528;21.204;2024-02-21T14:58:48;12.80;;;4.63;;